메인 페이지
METAR-TAF:

METAR-TAF

공항 :

상파울루 구아룰류스 국제공항, 상파울루, 브라질

위도: 23-26S, 경도: 046-28W, 고도: 750m

현재 날씨관측

예보는 1 시간 26분 전, 01:00시(UTC)에 발표되었습니다.
서북서4kt
온도 24°C
습도 74%
기압 1013 hPa
시정 10km 이상
1500m 미만 상공 구름 및 적란운 없음

METAR: SBGR 030100Z 30004KT CAVOK 24/19 Q1013

시각: 23:26 (02:26 UTC)

예보

예보는 4 시간 26분 전, 22:00시(UTC)에 발표되었습니다.
예보 대상 시간: 03일 00시부터 04일 06시까지 (UTC)
남서4kt
시정 10km 이상
1500m 미만 상공 구름 및 적란운 없음
확률 30%
03일 07시부터 03일 12시까지 (UTC)
북서8kt
시정: 8000m
고도 1000ft 상공 구름 많음
전환 중
03일 12시부터 03일 14시까지 (UTC)
10kt
고도 4000ft 상공 구름 보통
확률 40% :
일시적
03일 15시부터 03일 20시까지 (UTC)
시정: 7000m
고도 2000ft 상공 구름 많음
고도 4500ft 상공 구름 조금, 적란운.
뇌우, 비
전환 중
03일 20시부터 03일 22시까지 (UTC)
남남서5kt
고도 2000ft 상공 구름 보통
전환 중
03일 22시부터 03일 24시까지 (UTC)
10kt
고도 1500ft 상공 구름 많음
확률 30%
04일 00시부터 04일 06시까지 (UTC)
고도 900ft 상공 구름 많음

TAF: SBGR 022200Z 0300/0406 23004KT CAVOK TN20/0309Z TX26/0318Z PROB30 0307/0312 32008KT 8000 RA BKN010 BECMG 0312/0314 28010KT SCT040 PROB40 TEMPO 0315/0320 7000 TSRA BKN020 FEW045CB BECMG 0320/0322 20005KT SCT020 BECMG 0322/0324 17010KT BKN015 PROB30 0400/0406 BKN009 RMK PHH

4,000개 이상의 공항 관측 자료 및 예보 (METAR 및 TAF 보고).

지도상에서 검색 가능한 기상관측소가 노란 점과 빨간 점으로 표시되어 있습니다.

기상관측소 명을 보려면 표시 위로 마우스를 이동하세요.

날씨 관측과 예보를 보려면 클릭하세요.

지도 변경 : 확대하려면 엑스 표시가 있는 녹색 버튼, 축소하려면 빼기 표시가 있는 녹색 버튼, 다음 페이지의 지도를 보려면 녹색 화살표를 클릭하세요.


METAR-TAF: